Waterford, Mississippi
Current Conditions -  °F | °C
As of 9:35 AM on Saturday 20 Dec 2014 (Local Time) from KUOX Reporting Station
Clear Clear  
Wind Chill:   Ceiling: Unl
Heat Index:   Visibility: 7mi
Dew Point:   Wind: 9mph
Humidity: 70%   Direction: 70°ENE
Pressure: 30.29"   Gusts: NA
Location:  34.65°N, 89.46°W
Report Text: KUOX 201535Z AUTO 07008KT 7SM CLR 05/00 A3029 RMK AO2 PWINO PNO
Loading
Personal Weather Stations






























Interactive Weather Map New forecast layout! Learn more

10-Day Weather Forecast

Advertisements
Track Severe Weather on mobile